createdAt,value
2018-05-25T00:00:46.287Z,17.10
2018-05-25T00:03:15.897Z,17.10
2018-05-25T00:05:44.639Z,17.10
2018-05-25T00:08:14.191Z,17.10
2018-05-25T00:10:42.678Z,17.10
2018-05-25T00:13:11.255Z,17.20
2018-05-25T00:15:39.637Z,17.20
2018-05-25T00:18:09.121Z,17.20
2018-05-25T00:20:38.541Z,17.20
2018-05-25T00:23:07.024Z,17.20
2018-05-25T00:25:35.549Z,17.20
2018-05-25T00:28:05.013Z,17.20
2018-05-25T00:30:33.533Z,17.20
2018-05-25T00:33:03.201Z,17.00
2018-05-25T00:35:32.097Z,17.00
2018-05-25T00:38:01.809Z,17.00
2018-05-25T00:40:30.283Z,16.90
2018-05-25T00:42:58.943Z,16.90
2018-05-25T00:45:27.471Z,16.90
2018-05-25T00:47:56.036Z,17.10
2018-05-25T00:50:24.642Z,17.30
2018-05-25T00:52:52.895Z,17.20
2018-05-25T00:55:33.177Z,16.90
2018-05-25T00:58:01.426Z,16.90
2018-05-25T01:00:30.015Z,16.80
2018-05-25T01:02:58.433Z,16.80
2018-05-25T01:05:26.668Z,16.80
2018-05-25T01:07:54.911Z,16.70
2018-05-25T01:10:23.169Z,16.60
2018-05-25T01:12:57.080Z,16.60
2018-05-25T01:15:31.246Z,16.60
2018-05-25T01:18:05.319Z,16.60
2018-05-25T01:20:39.148Z,16.70
2018-05-25T01:23:13.180Z,16.60
2018-05-25T01:25:47.209Z,16.50
2018-05-25T01:28:20.981Z,16.50
2018-05-25T01:30:54.737Z,16.50
2018-05-25T01:33:29.390Z,16.50
2018-05-25T01:36:03.438Z,16.50
2018-05-25T01:38:37.378Z,16.50
2018-05-25T01:41:11.177Z,16.60
2018-05-25T01:43:45.792Z,16.60
2018-05-25T01:46:19.738Z,16.60
2018-05-25T01:48:53.546Z,16.70
2018-05-25T01:51:27.349Z,16.70
2018-05-25T01:54:01.154Z,16.80
2018-05-25T01:56:35.871Z,16.70
2018-05-25T01:59:10.676Z,16.70
2018-05-25T02:01:44.596Z,16.70
2018-05-25T02:04:18.497Z,16.70
2018-05-25T02:06:52.290Z,16.60
2018-05-25T02:09:26.097Z,16.60
2018-05-25T02:12:00.196Z,16.60
2018-05-25T02:14:34.834Z,16.40
2018-05-25T02:17:09.330Z,16.30
2018-05-25T02:19:43.220Z,16.30
2018-05-25T02:22:17.074Z,16.40
2018-05-25T02:24:51.009Z,16.40
2018-05-25T02:27:25.479Z,16.30
2018-05-25T02:29:59.376Z,16.30
2018-05-25T02:32:33.225Z,16.30
2018-05-25T02:35:06.973Z,16.40
2018-05-25T02:37:41.651Z,16.30
2018-05-25T02:40:15.508Z,16.20
2018-05-25T02:42:49.980Z,16.20
2018-05-25T02:45:23.889Z,16.20
2018-05-25T02:47:58.559Z,16.00
2018-05-25T02:50:33.204Z,16.00
2018-05-25T02:53:07.115Z,16.00
2018-05-25T02:55:40.957Z,15.90
2018-05-25T02:58:14.807Z,15.90
2018-05-25T03:00:48.837Z,15.90
2018-05-25T03:03:23.484Z,15.90
2018-05-25T03:05:58.255Z,15.70
2018-05-25T03:08:33.062Z,15.60
2018-05-25T03:11:06.833Z,15.60
2018-05-25T03:13:41.597Z,15.70
2018-05-25T03:16:15.607Z,15.60
2018-05-25T03:18:49.569Z,15.70
2018-05-25T03:21:23.344Z,15.70
2018-05-25T03:23:58.115Z,15.60
2018-05-25T03:26:31.961Z,15.60
2018-05-25T03:29:06.079Z,15.70
2018-05-25T03:31:40.045Z,15.60
2018-05-25T03:34:14.030Z,15.70
2018-05-25T03:36:48.104Z,15.60
2018-05-25T03:39:21.998Z,15.60
2018-05-25T03:41:55.954Z,15.50
2018-05-25T03:44:30.568Z,15.60
2018-05-25T03:47:04.563Z,15.60
2018-05-25T03:49:39.222Z,15.60
2018-05-25T03:52:13.408Z,15.50
2018-05-25T03:54:47.353Z,15.50
2018-05-25T03:57:21.320Z,15.50
2018-05-25T04:00:07.181Z,15.50
2018-05-25T04:02:41.734Z,15.50
2018-05-25T04:05:15.643Z,15.40
2018-05-25T04:07:49.422Z,15.50
2018-05-25T04:10:23.162Z,15.60
2018-05-25T04:12:57.822Z,15.50
2018-05-25T04:15:31.765Z,15.50
2018-05-25T04:18:06.582Z,15.40
2018-05-25T04:20:41.348Z,15.40
2018-05-25T04:23:15.345Z,15.40
2018-05-25T04:25:49.335Z,15.30
2018-05-25T04:28:23.353Z,15.30
2018-05-25T04:30:58.082Z,15.30
2018-05-25T04:33:31.916Z,15.20
2018-05-25T04:36:05.995Z,15.20
2018-05-25T04:38:40.037Z,15.20
2018-05-25T04:41:14.729Z,15.20
2018-05-25T04:43:48.635Z,15.20
2018-05-25T04:46:22.384Z,15.30
2018-05-25T04:48:57.974Z,15.30
2018-05-25T04:51:31.985Z,15.30
2018-05-25T04:54:05.901Z,15.30
2018-05-25T04:56:40.530Z,15.40
2018-05-25T04:59:14.246Z,15.40
2018-05-25T05:01:48.067Z,15.50
2018-05-25T05:04:22.098Z,15.60
2018-05-25T05:06:55.904Z,15.70
2018-05-25T05:09:29.824Z,15.80
2018-05-25T05:12:03.647Z,15.90
2018-05-25T05:14:37.381Z,15.90
2018-05-25T05:17:11.222Z,16.00
2018-05-25T05:19:45.905Z,16.20
2018-05-25T05:22:19.573Z,16.20
2018-05-25T05:24:53.574Z,16.30
2018-05-25T05:27:27.329Z,16.30
2018-05-25T05:30:01.224Z,16.50
2018-05-25T05:32:35.196Z,16.50
2018-05-25T05:35:09.033Z,16.50
2018-05-25T05:37:42.911Z,16.70
2018-05-25T05:40:17.350Z,16.90
2018-05-25T05:42:51.188Z,16.80
2018-05-25T05:45:25.017Z,16.90
2018-05-25T05:47:58.846Z,17.10
2018-05-25T05:50:32.713Z,17.10
2018-05-25T05:53:06.621Z,17.30
2018-05-25T05:55:40.476Z,17.50
2018-05-25T05:58:14.349Z,17.70
2018-05-25T06:00:48.608Z,17.80
2018-05-25T06:03:23.173Z,18.10
2018-05-25T06:05:57.117Z,18.10
2018-05-25T06:08:31.149Z,18.30
2018-05-25T06:11:05.081Z,18.40
2018-05-25T06:13:38.838Z,18.60
2018-05-25T06:16:13.490Z,19.00
2018-05-25T06:18:47.191Z,18.90
2018-05-25T06:21:20.975Z,19.00
2018-05-25T06:23:54.718Z,19.00
2018-05-25T06:26:29.403Z,19.50
2018-05-25T06:29:03.223Z,19.50
2018-05-25T06:31:37.071Z,19.70
2018-05-25T06:34:11.508Z,19.70
2018-05-25T06:36:45.380Z,19.70
2018-05-25T06:39:19.962Z,20.10
2018-05-25T06:41:53.878Z,20.10
2018-05-25T06:44:27.764Z,20.20
2018-05-25T06:47:01.689Z,20.30
2018-05-25T06:49:35.325Z,20.70
2018-05-25T06:52:09.942Z,21.30
2018-05-25T06:54:43.704Z,21.30
2018-05-25T06:57:17.641Z,21.60
2018-05-25T06:59:51.484Z,21.90
2018-05-25T07:02:26.029Z,22.10
2018-05-25T07:05:00.077Z,22.10
2018-05-25T07:07:33.751Z,21.90
2018-05-25T07:10:07.975Z,21.90
2018-05-25T07:12:41.762Z,22.30
2018-05-25T07:15:16.085Z,22.30
2018-05-25T07:17:49.889Z,22.40
2018-05-25T07:20:23.670Z,22.50
2018-05-25T07:22:57.405Z,22.80
2018-05-25T07:25:31.241Z,23.10
2018-05-25T07:28:05.106Z,23.00
2018-05-25T07:30:39.185Z,23.30
2018-05-25T07:33:12.905Z,23.70
2018-05-25T07:35:46.731Z,24.30
2018-05-25T07:38:20.697Z,23.80
2018-05-25T07:40:55.549Z,24.70
2018-05-25T07:43:29.487Z,24.70
2018-05-25T07:45:58.531Z,24.60
2018-05-25T07:48:26.773Z,24.60
2018-05-25T07:50:54.977Z,24.60
2018-05-25T07:53:23.369Z,24.70
2018-05-25T07:55:51.656Z,24.70
2018-05-25T07:58:19.840Z,25.30
2018-05-25T08:00:48.825Z,25.90
2018-05-25T08:03:17.325Z,25.90
2018-05-25T08:05:45.534Z,26.20
2018-05-25T08:08:13.799Z,26.20
2018-05-25T08:10:43.052Z,26.30
2018-05-25T08:13:11.225Z,26.40
2018-05-25T08:15:40.209Z,26.70
2018-05-25T08:18:08.404Z,26.60
2018-05-25T08:20:37.478Z,27.10
2018-05-25T08:23:05.741Z,27.10
2018-05-25T08:25:33.932Z,26.90
2018-05-25T08:28:03.002Z,27.50
2018-05-25T08:30:31.208Z,27.50
2018-05-25T08:33:00.196Z,28.50
2018-05-25T08:35:29.171Z,28.90
2018-05-25T08:37:57.484Z,28.90
2018-05-25T08:40:26.484Z,29.80
2018-05-25T08:42:54.729Z,29.70
2018-05-25T08:45:23.847Z,28.50
2018-05-25T08:47:52.080Z,28.50
2018-05-25T08:50:20.291Z,28.20
2018-05-25T08:52:48.705Z,29.50
2018-05-25T08:55:16.910Z,30.20
2018-05-25T08:57:45.129Z,29.70
2018-05-25T09:00:13.350Z,30.30
2018-05-25T09:02:41.624Z,30.40
2018-05-25T09:05:10.150Z,30.60
2018-05-25T09:07:38.340Z,30.90
2018-05-25T09:10:06.646Z,31.40
2018-05-25T09:12:35.006Z,31.60
2018-05-25T09:15:03.265Z,31.60
2018-05-25T09:17:31.506Z,31.80
2018-05-25T09:20:00.440Z,31.70
2018-05-25T09:22:29.182Z,31.70
2018-05-25T09:24:58.182Z,31.00
2018-05-25T09:27:27.170Z,31.00
2018-05-25T09:29:56.307Z,31.90
2018-05-25T09:32:24.506Z,31.90
2018-05-25T09:34:52.770Z,31.00
2018-05-25T09:37:21.008Z,32.80
2018-05-25T09:39:49.196Z,32.60
2018-05-25T09:42:17.465Z,32.00
2018-05-25T09:44:45.689Z,31.20
2018-05-25T09:47:14.722Z,31.20
2018-05-25T09:49:42.940Z,31.20
2018-05-25T09:52:11.245Z,32.50
2018-05-25T09:54:39.501Z,33.20
2018-05-25T09:57:08.471Z,34.20
2018-05-25T09:59:36.706Z,34.20
2018-05-25T10:02:04.926Z,35.00
2018-05-25T10:04:33.173Z,35.70
2018-05-25T10:07:02.059Z,36.00
2018-05-25T10:09:30.263Z,35.90
2018-05-25T10:11:58.446Z,35.20
2018-05-25T10:14:27.484Z,35.20
2018-05-25T10:16:55.721Z,35.20
2018-05-25T10:19:24.001Z,33.80
2018-05-25T10:21:52.956Z,33.00
2018-05-25T10:24:21.175Z,33.00
2018-05-25T10:26:50.117Z,31.50
2018-05-25T10:29:18.317Z,31.50
2018-05-25T10:31:46.501Z,31.40
2018-05-25T10:34:15.477Z,31.40
2018-05-25T10:36:43.694Z,31.40
2018-05-25T10:39:12.017Z,32.40
2018-05-25T10:41:40.667Z,31.40
2018-05-25T10:44:08.869Z,33.00
2018-05-25T10:46:37.072Z,32.70
2018-05-25T10:49:05.247Z,33.00
2018-05-25T10:51:34.234Z,31.30
2018-05-25T10:54:02.441Z,31.30
2018-05-25T10:56:30.629Z,31.10
2018-05-25T10:58:59.203Z,32.50
2018-05-25T11:01:27.383Z,31.90
2018-05-25T11:03:55.574Z,29.40
2018-05-25T11:06:23.810Z,29.00
2018-05-25T11:08:52.741Z,31.10
2018-05-25T11:11:20.951Z,31.00
2018-05-25T11:13:49.128Z,31.10
2018-05-25T11:16:18.077Z,28.60
2018-05-25T11:18:46.274Z,28.60
2018-05-25T11:21:15.255Z,27.50
2018-05-25T11:23:44.308Z,28.00
2018-05-25T11:26:12.502Z,28.00
2018-05-25T11:28:40.801Z,28.80
2018-05-25T11:31:09.054Z,27.40
2018-05-25T11:33:37.234Z,28.40
2018-05-25T11:36:05.530Z,27.90
2018-05-25T11:38:33.735Z,27.50
2018-05-25T11:41:01.944Z,27.70
2018-05-25T11:43:30.153Z,28.20
2018-05-25T11:45:59.106Z,29.90
2018-05-25T11:48:27.308Z,29.90
2018-05-25T11:50:55.522Z,29.30
2018-05-25T11:53:23.749Z,28.70
2018-05-25T11:55:51.970Z,28.50
2018-05-25T11:58:20.213Z,27.70
2018-05-25T12:00:48.443Z,29.10
2018-05-25T12:03:16.651Z,29.60
2018-05-25T12:05:45.649Z,29.50
2018-05-25T12:08:14.657Z,29.50
2018-05-25T12:10:42.923Z,29.50
2018-05-25T12:13:12.044Z,28.70
2018-05-25T12:15:41.012Z,27.70
2018-05-25T12:18:10.024Z,29.30
2018-05-25T12:20:39.073Z,30.10
2018-05-25T12:23:07.304Z,30.10
2018-05-25T12:25:35.534Z,30.70
2018-05-25T12:28:04.483Z,30.60
2018-05-25T12:30:32.673Z,30.60
2018-05-25T12:33:01.553Z,30.10
2018-05-25T12:35:29.713Z,29.90
2018-05-25T12:37:57.957Z,30.80
2018-05-25T12:40:26.921Z,32.50
2018-05-25T12:42:55.149Z,32.50
2018-05-25T12:45:23.357Z,31.80
2018-05-25T12:47:51.610Z,32.60
2018-05-25T12:50:20.603Z,34.10
2018-05-25T12:52:48.798Z,34.00
2018-05-25T12:55:17.027Z,34.30
2018-05-25T12:57:46.265Z,34.40
2018-05-25T13:00:15.060Z,35.10
2018-05-25T13:02:43.277Z,35.80
2018-05-25T13:05:11.520Z,33.60
2018-05-25T13:07:40.568Z,32.00
2018-05-25T13:10:08.829Z,32.00
2018-05-25T13:12:37.006Z,31.90
2018-05-25T13:15:05.202Z,32.90
2018-05-25T13:17:34.329Z,33.50
2018-05-25T13:20:03.394Z,33.50
2018-05-25T13:22:31.667Z,33.50
2018-05-25T13:24:59.903Z,33.50
2018-05-25T13:27:28.159Z,33.50
2018-05-25T13:29:57.165Z,33.80
2018-05-25T13:32:25.480Z,33.80
2018-05-25T13:34:53.733Z,32.80
2018-05-25T13:37:22.055Z,33.00
2018-05-25T13:39:50.312Z,33.50
2018-05-25T13:42:18.712Z,33.00
2018-05-25T13:44:46.893Z,31.40
2018-05-25T13:47:15.253Z,31.80
2018-05-25T13:49:43.520Z,32.30
2018-05-25T13:52:11.702Z,32.30
2018-05-25T13:54:39.914Z,32.70
2018-05-25T13:57:08.139Z,32.80
2018-05-25T13:59:36.351Z,32.40
2018-05-25T14:02:05.301Z,31.50
2018-05-25T14:04:33.508Z,31.50
2018-05-25T14:07:02.464Z,30.50
2018-05-25T14:09:30.726Z,30.50
2018-05-25T14:11:58.927Z,30.80
2018-05-25T14:14:27.149Z,31.40
2018-05-25T14:16:55.375Z,30.40
2018-05-25T14:19:23.609Z,29.50
2018-05-25T14:21:51.837Z,29.90
2018-05-25T14:24:20.797Z,29.50
2018-05-25T14:26:49.071Z,29.50
2018-05-25T14:29:17.392Z,29.60
2018-05-25T14:31:45.635Z,29.20
2018-05-25T14:34:13.936Z,28.60
2018-05-25T14:36:49.312Z,28.10
2018-05-25T14:39:18.620Z,28.00
2018-05-25T14:41:47.106Z,27.70
2018-05-25T14:44:15.328Z,28.00
2018-05-25T14:46:44.312Z,27.50
2018-05-25T14:49:13.331Z,27.10
2018-05-25T14:51:41.556Z,27.00
2018-05-25T14:54:09.738Z,26.50
2018-05-25T14:56:38.780Z,27.10
2018-05-25T14:59:07.028Z,27.10
2018-05-25T15:01:35.174Z,27.30
2018-05-25T15:04:03.458Z,27.30
2018-05-25T15:06:32.491Z,27.00
2018-05-25T15:09:00.735Z,27.00
2018-05-25T15:11:30.379Z,26.30
2018-05-25T15:13:58.622Z,26.30
2018-05-25T15:16:27.601Z,26.20
2018-05-25T15:18:55.890Z,26.20
2018-05-25T15:21:24.202Z,26.30
2018-05-25T15:23:52.430Z,25.90
2018-05-25T15:26:21.469Z,25.60
2018-05-25T15:28:49.761Z,25.60
2018-05-25T15:31:18.109Z,25.60
2018-05-25T15:33:46.936Z,25.00
2018-05-25T15:36:15.185Z,25.00
2018-05-25T15:38:43.483Z,24.80
2018-05-25T15:41:11.715Z,24.80
2018-05-25T15:43:40.152Z,24.60
2018-05-25T15:46:08.665Z,24.00
2018-05-25T15:48:40.961Z,23.70
2018-05-25T15:51:09.604Z,24.10
2018-05-25T15:53:38.822Z,24.00
2018-05-25T15:56:07.199Z,24.00
2018-05-25T15:58:36.398Z,23.40
2018-05-25T16:01:04.673Z,23.40
2018-05-25T16:03:32.980Z,22.90
2018-05-25T16:06:01.841Z,23.10
2018-05-25T16:08:30.154Z,23.30
2018-05-25T16:10:58.532Z,23.30
2018-05-25T16:13:26.818Z,22.90
2018-05-25T16:15:55.127Z,23.00
2018-05-25T16:18:24.180Z,23.10
2018-05-25T16:20:52.447Z,23.00
2018-05-25T16:23:20.870Z,22.90
2018-05-25T16:25:49.421Z,23.30
2018-05-25T16:28:17.779Z,22.90
2018-05-25T16:30:46.037Z,22.30
2018-05-25T16:33:14.463Z,22.20
2018-05-25T16:35:42.743Z,22.60
2018-05-25T16:38:10.976Z,22.10
2018-05-25T16:40:39.353Z,21.90
2018-05-25T16:43:07.666Z,21.40
2018-05-25T16:45:36.112Z,20.90
2018-05-25T16:48:05.003Z,20.70
2018-05-25T16:50:33.264Z,21.00
2018-05-25T16:53:01.661Z,20.90
2018-05-25T16:55:29.900Z,21.10
2018-05-25T16:57:58.081Z,22.40
2018-05-25T17:00:26.363Z,22.10
2018-05-25T17:02:54.699Z,22.20
2018-05-25T17:05:23.760Z,21.50
2018-05-25T17:07:52.157Z,21.50
2018-05-25T17:10:21.299Z,21.10
2018-05-25T17:12:49.937Z,21.10
2018-05-25T17:15:18.230Z,20.90
2018-05-25T17:17:46.577Z,20.80
2018-05-25T17:20:15.062Z,20.60
2018-05-25T17:22:43.642Z,20.50
2018-05-25T17:25:12.460Z,20.40
2018-05-25T17:27:41.616Z,20.40
2018-05-25T17:30:10.202Z,20.30
2018-05-25T17:32:40.330Z,20.10
2018-05-25T17:35:09.632Z,20.20
2018-05-25T17:37:38.271Z,20.10
2018-05-25T17:40:06.919Z,19.90
2018-05-25T17:42:37.519Z,19.50
2018-05-25T17:45:06.203Z,19.50
2018-05-25T17:47:34.695Z,19.70
2018-05-25T17:50:04.278Z,19.80
2018-05-25T17:52:33.201Z,19.80
2018-05-25T17:55:02.878Z,19.90
2018-05-25T17:57:31.373Z,19.80
2018-05-25T18:00:00.217Z,19.60
2018-05-25T18:02:29.688Z,19.60
2018-05-25T18:04:59.811Z,19.70
2018-05-25T18:07:29.309Z,19.20
2018-05-25T18:09:58.710Z,19.30
2018-05-25T18:12:28.118Z,19.30
2018-05-25T18:14:56.700Z,19.20
2018-05-25T18:17:25.514Z,18.90
2018-05-25T18:19:54.103Z,19.00
2018-05-25T18:22:23.682Z,18.70
2018-05-25T18:24:53.086Z,18.70
2018-05-25T18:27:22.498Z,18.90
2018-05-25T18:29:51.056Z,18.90
2018-05-25T18:32:20.398Z,19.90
2018-05-25T18:34:49.011Z,19.80
2018-05-25T18:37:17.439Z,19.40
2018-05-25T18:39:46.062Z,19.20
2018-05-25T18:42:14.605Z,19.10
2018-05-25T18:44:42.994Z,18.80
2018-05-25T18:47:12.033Z,18.70
2018-05-25T18:49:41.372Z,18.80
2018-05-25T18:52:09.966Z,18.80
2018-05-25T18:54:38.439Z,18.50
2018-05-25T18:57:06.984Z,18.50
2018-05-25T19:02:10.240Z,18.20
2018-05-25T19:04:39.554Z,18.60
2018-05-25T19:07:08.829Z,18.50
2018-05-25T19:09:37.483Z,18.50
2018-05-25T19:12:06.728Z,18.60
2018-05-25T19:14:35.569Z,18.60
2018-05-25T19:17:05.031Z,18.40
2018-05-25T19:19:34.268Z,18.10
2018-05-25T19:22:03.724Z,18.10
2018-05-25T19:24:37.770Z,18.10
2018-05-25T19:27:12.566Z,18.20
2018-05-25T19:29:47.605Z,18.20
2018-05-25T19:32:21.709Z,18.10
2018-05-25T19:34:55.622Z,17.90
2018-05-25T19:37:29.614Z,18.00
2018-05-25T19:40:04.195Z,17.80
2018-05-25T19:42:38.024Z,17.70
2018-05-25T19:45:11.831Z,17.60
2018-05-25T19:47:45.668Z,17.60
2018-05-25T19:50:20.836Z,17.40
2018-05-25T19:52:54.959Z,17.30
2018-05-25T19:55:29.610Z,17.30
2018-05-25T19:58:03.469Z,17.30
2018-05-25T20:00:38.213Z,17.30
2018-05-25T20:03:12.820Z,17.30
2018-05-25T20:05:46.797Z,17.30
2018-05-25T20:08:20.685Z,17.30
2018-05-25T20:13:33.299Z,17.20
2018-05-25T20:16:07.044Z,17.10
2018-05-25T20:18:41.287Z,17.20
2018-05-25T20:21:17.141Z,17.40
2018-05-25T20:23:51.095Z,17.40
2018-05-25T20:26:25.369Z,17.60
2018-05-25T20:28:59.448Z,17.60
2018-05-25T20:31:34.007Z,17.50
2018-05-25T20:34:10.276Z,17.50
2018-05-25T20:36:45.605Z,17.40
2018-05-25T20:39:20.748Z,17.30
2018-05-25T20:41:55.684Z,17.30
2018-05-25T20:44:30.412Z,17.30
2018-05-25T20:47:04.638Z,17.20
2018-05-25T20:49:38.636Z,17.10
2018-05-25T20:52:13.978Z,16.70
2018-05-25T20:54:49.219Z,16.90
2018-05-25T20:57:24.151Z,16.80
2018-05-25T20:59:59.390Z,17.10
2018-05-25T21:02:33.722Z,17.00
2018-05-25T21:05:08.725Z,17.00
2018-05-25T21:07:43.546Z,16.90
2018-05-25T21:10:17.658Z,16.90
2018-05-25T21:12:52.725Z,17.00
2018-05-25T21:15:27.320Z,16.90
2018-05-25T21:18:02.559Z,16.90
2018-05-25T21:20:36.976Z,16.90
2018-05-25T21:23:12.461Z,16.90
2018-05-25T21:25:47.157Z,16.90
2018-05-25T21:28:21.500Z,16.90
2018-05-25T21:30:56.840Z,17.00
2018-05-25T21:33:32.800Z,16.90
2018-05-25T21:36:06.969Z,16.90
2018-05-25T21:38:41.311Z,16.90
2018-05-25T21:41:16.166Z,16.90
2018-05-25T21:43:50.329Z,16.80
2018-05-25T21:46:24.903Z,16.90
2018-05-25T21:48:59.939Z,17.00
2018-05-25T21:51:34.564Z,17.00
2018-05-25T21:54:08.779Z,16.90
2018-05-25T21:56:42.793Z,17.10
2018-05-25T21:59:16.941Z,16.90
2018-05-25T22:01:51.508Z,16.60
2018-05-25T22:04:25.853Z,16.40
2018-05-25T22:07:00.373Z,16.00
2018-05-25T22:09:35.206Z,15.80
2018-05-25T22:12:09.729Z,15.70
2018-05-25T22:14:44.659Z,16.10
2018-05-25T22:17:18.582Z,16.10
2018-05-25T22:19:52.457Z,16.10
2018-05-25T22:22:26.476Z,16.20
2018-05-25T22:25:00.573Z,16.30
2018-05-25T22:27:34.714Z,16.30
2018-05-25T22:30:08.588Z,16.60
2018-05-25T22:32:43.317Z,16.60
2018-05-25T22:35:17.362Z,16.50
2018-05-25T22:37:52.223Z,16.70
2018-05-25T22:40:26.106Z,16.70
2018-05-25T22:43:12.094Z,16.70
2018-05-25T22:45:58.060Z,16.80
2018-05-25T22:48:44.062Z,16.90
2018-05-25T22:51:29.967Z,17.10
2018-05-25T22:54:09.260Z,17.20
2018-05-25T22:56:43.217Z,17.30
2018-05-25T22:59:17.186Z,17.20
2018-05-25T23:01:51.335Z,17.20
2018-05-25T23:04:26.182Z,17.30
2018-05-25T23:07:00.089Z,17.30
2018-05-25T23:09:33.909Z,17.30
2018-05-25T23:12:07.817Z,17.40
2018-05-25T23:14:42.475Z,17.50
2018-05-25T23:17:17.347Z,17.50
2018-05-25T23:19:51.409Z,17.50
2018-05-25T23:22:25.577Z,17.50
2018-05-25T23:24:59.522Z,17.50
2018-05-25T23:27:33.272Z,17.60
2018-05-25T23:30:08.041Z,17.70
2018-05-25T23:32:43.270Z,17.70
2018-05-25T23:35:17.601Z,17.70
2018-05-25T23:37:51.588Z,17.70
2018-05-25T23:40:26.385Z,17.60
2018-05-25T23:43:00.323Z,17.60
2018-05-25T23:45:34.724Z,17.60
2018-05-25T23:48:08.635Z,17.50
2018-05-25T23:50:42.569Z,17.60
2018-05-25T23:53:16.650Z,17.50
2018-05-25T23:55:51.441Z,17.50
2018-05-25T23:58:26.161Z,17.50
